createdAt,value
2024-01-18T00:03:22.344Z,93558.72
2024-01-18T00:09:24.146Z,93570.63
2024-01-18T00:15:25.845Z,93572.06
2024-01-18T00:21:27.641Z,93579.53
2024-01-18T00:27:29.364Z,93586.81
2024-01-18T00:33:31.228Z,93586.97
2024-01-18T00:39:32.982Z,93587.56
2024-01-18T00:45:34.686Z,93587.72
2024-01-18T00:51:36.467Z,93595.09
2024-01-18T00:57:38.168Z,93596.94
2024-01-18T01:03:40.186Z,93598.06
2024-01-18T01:09:42.488Z,93585.53
2024-01-18T01:15:44.277Z,93607.84
2024-01-18T01:21:45.885Z,93603.84
2024-01-18T01:27:47.513Z,93604.63
2024-01-18T01:33:50.519Z,93606.34
2024-01-18T01:39:52.611Z,93611.78
2024-01-18T01:45:54.214Z,93620.72
2024-01-18T01:51:56.534Z,93616.06
2024-01-18T01:57:58.151Z,93626.13
2024-01-18T02:04:01.095Z,93632.03
2024-01-18T02:10:05.510Z,93618.69
2024-01-18T02:16:07.716Z,93620.25
2024-01-18T02:22:10.860Z,93612.94
2024-01-18T02:28:13.187Z,93608.72
2024-01-18T02:34:18.897Z,93603.13
2024-01-18T02:40:20.680Z,93607.69
2024-01-18T02:46:24.439Z,93616.19
2024-01-18T02:52:25.902Z,93613.91
2024-01-18T02:58:27.495Z,93611.22
2024-01-18T03:04:29.097Z,93604.19
2024-01-18T03:10:30.708Z,93601.19
2024-01-18T03:16:33.051Z,93596.72
2024-01-18T03:22:36.073Z,93597.94
2024-01-18T03:28:37.642Z,93594.16
2024-01-18T03:34:40.378Z,93602.28
2024-01-18T03:40:42.188Z,93605.78
2024-01-18T03:46:43.820Z,93605.25
2024-01-18T03:52:45.434Z,93604.59
2024-01-18T03:58:47.483Z,93594.75
2024-01-18T04:04:49.128Z,93614.50
2024-01-18T04:10:50.702Z,93616.16
2024-01-18T04:16:52.288Z,93614.78
2024-01-18T04:22:54.244Z,93597.09
2024-01-18T04:28:57.283Z,93597.53
2024-01-18T04:34:59.043Z,93597.53
2024-01-18T04:41:00.840Z,93592.84
2024-01-18T04:47:02.478Z,93590.16
2024-01-18T04:53:04.195Z,93603.25
2024-01-18T04:59:06.176Z,93609.50
2024-01-18T05:05:09.801Z,93600.53
2024-01-18T05:11:11.548Z,93605.53
2024-01-18T05:17:14.189Z,93607.81
2024-01-18T05:23:16.161Z,93612.53
2024-01-18T05:29:17.710Z,93609.47
2024-01-18T05:35:19.676Z,93614.59
2024-01-18T05:41:21.553Z,93622.03
2024-01-18T05:47:23.384Z,93616.06
2024-01-18T05:53:25.082Z,93622.78
2024-01-18T05:59:26.863Z,93621.34
2024-01-18T06:05:28.562Z,93620.16
2024-01-18T06:11:30.177Z,93610.72
2024-01-18T06:17:31.779Z,93606.44
2024-01-18T06:23:33.369Z,93611.56
2024-01-18T06:29:36.535Z,93607.66
2024-01-18T06:35:38.282Z,93597.00
2024-01-18T06:41:41.114Z,93595.47
2024-01-18T06:47:42.686Z,93604.47
2024-01-18T06:53:45.351Z,93605.78
2024-01-18T06:59:47.293Z,93607.28
2024-01-18T07:05:50.843Z,93603.00
2024-01-18T07:11:52.463Z,93609.06
2024-01-18T07:17:55.790Z,93603.50
2024-01-18T07:23:57.442Z,93596.91
2024-01-18T07:29:59.111Z,93591.66
2024-01-18T07:36:00.798Z,93588.94
2024-01-18T07:42:02.662Z,93586.22
2024-01-18T07:48:04.635Z,93587.78
2024-01-18T07:54:06.372Z,93591.69
2024-01-18T08:00:09.540Z,93591.69
2024-01-18T08:06:12.568Z,93600.84
2024-01-18T08:12:14.299Z,93588.78
2024-01-18T08:18:17.473Z,93589.84
2024-01-18T08:24:19.155Z,93590.47
2024-01-18T08:30:21.401Z,93594.31
2024-01-18T08:36:23.214Z,93588.28
2024-01-18T08:42:24.923Z,93585.56
2024-01-18T08:48:27.089Z,93594.84
2024-01-18T08:54:28.776Z,93588.44
2024-01-18T09:00:30.383Z,93592.34
2024-01-18T09:06:32.385Z,93587.19
2024-01-18T09:12:33.966Z,93589.41
2024-01-18T09:18:35.742Z,93599.41
2024-01-18T09:24:37.354Z,93611.44
2024-01-18T09:30:42.313Z,93620.00
2024-01-18T09:36:47.828Z,93626.00
2024-01-18T09:42:51.281Z,93624.03
2024-01-18T09:48:54.021Z,93630.75
2024-01-18T09:54:55.806Z,93602.78
2024-01-18T10:01:00.354Z,93610.41
2024-01-18T10:07:03.965Z,93606.50
2024-01-18T10:13:06.786Z,93609.22
2024-01-18T10:19:15.578Z,93612.81
2024-01-18T10:25:17.668Z,93608.91
2024-01-18T10:31:19.888Z,93612.84
2024-01-18T10:37:21.564Z,93605.84
2024-01-18T10:43:23.254Z,93607.34
2024-01-18T10:49:26.638Z,93608.28
2024-01-18T10:55:28.381Z,93598.69
2024-01-18T11:01:30.548Z,93595.34
2024-01-18T11:07:32.205Z,93589.44
2024-01-18T11:13:36.381Z,93594.34
2024-01-18T11:19:43.215Z,93568.09
2024-01-18T11:25:45.868Z,93567.09
2024-01-18T11:31:51.380Z,93574.53
2024-01-18T11:37:53.077Z,93565.56
2024-01-18T11:43:57.286Z,93582.00
2024-01-18T11:50:00.180Z,93574.47
2024-01-18T11:56:05.182Z,93570.56
2024-01-18T12:02:06.741Z,93560.94
2024-01-18T12:08:09.669Z,93572.53
2024-01-18T12:14:11.379Z,93558.03
2024-01-18T12:20:18.167Z,93557.66
2024-01-18T12:26:20.098Z,93564.44
2024-01-18T12:32:21.653Z,93561.34
2024-01-18T12:38:23.368Z,93560.88
2024-01-18T12:44:25.124Z,93555.69
2024-01-18T12:50:26.787Z,93562.56
2024-01-18T12:56:28.920Z,93571.41
2024-01-18T13:02:31.279Z,93572.97
2024-01-18T13:08:32.952Z,93585.56
2024-01-18T13:14:38.101Z,93590.09
2024-01-18T13:20:43.692Z,93584.72
2024-01-18T13:26:48.601Z,93585.06
2024-01-18T13:32:51.294Z,93608.63
2024-01-18T13:38:52.954Z,93613.22
2024-01-18T13:44:55.116Z,93619.44
2024-01-18T13:50:59.065Z,93617.44
2024-01-18T13:57:00.903Z,93707.72
2024-01-18T14:03:02.480Z,93781.47
2024-01-18T14:09:04.558Z,93781.28
2024-01-18T14:15:06.640Z,93802.59
2024-01-18T14:21:08.725Z,93816.28
2024-01-18T14:27:10.898Z,93825.63
2024-01-18T14:33:15.230Z,93856.63
2024-01-18T14:39:17.601Z,93881.31
2024-01-18T14:45:21.917Z,93914.25
2024-01-18T14:51:23.443Z,93928.78
2024-01-18T14:57:25.272Z,93962.72
2024-01-18T15:03:27.474Z,93984.25
2024-01-18T15:09:29.172Z,94015.81
2024-01-18T15:15:31.114Z,94039.19
2024-01-18T15:21:34.746Z,94071.84
2024-01-18T15:27:37.684Z,94104.66
2024-01-18T15:33:41.610Z,94137.84
2024-01-18T15:39:43.585Z,94152.16
2024-01-18T15:45:45.498Z,94173.44
2024-01-18T15:51:47.082Z,94212.78
2024-01-18T15:57:48.788Z,94248.28
2024-01-18T16:03:50.453Z,94267.06
2024-01-18T16:09:52.092Z,94309.75
2024-01-18T16:15:58.342Z,94327.28
2024-01-18T16:22:00.065Z,94345.13
2024-01-18T16:28:01.767Z,94389.06
2024-01-18T16:34:03.516Z,94395.84
2024-01-18T16:40:07.179Z,94436.03
2024-01-18T16:46:10.903Z,94469.81
2024-01-18T16:52:12.545Z,94498.00
2024-01-18T16:58:14.206Z,94520.28
2024-01-18T17:04:15.963Z,94541.28
2024-01-18T17:10:17.664Z,94563.31
2024-01-18T17:16:19.422Z,94587.41
2024-01-18T17:22:21.081Z,94606.88
2024-01-18T17:28:22.671Z,94626.78
2024-01-18T17:34:24.943Z,94643.41
2024-01-18T17:40:27.743Z,94686.19
2024-01-18T17:46:29.388Z,94700.25
2024-01-18T17:52:30.970Z,94728.59
2024-01-18T17:58:35.352Z,94745.44
2024-01-18T18:04:36.929Z,94761.91
2024-01-18T18:10:38.485Z,94769.97
2024-01-18T18:16:40.116Z,94778.78
2024-01-18T18:22:41.746Z,94797.88
2024-01-18T18:28:43.498Z,94826.81
2024-01-18T18:34:45.159Z,94861.28
2024-01-18T18:40:47.423Z,94888.22
2024-01-18T18:46:49.023Z,94913.50
2024-01-18T18:52:50.684Z,94920.38
2024-01-18T18:58:52.310Z,94928.91
2024-01-18T19:04:55.042Z,94950.16
2024-01-18T19:10:56.676Z,94964.94
2024-01-18T19:16:58.300Z,94981.94
2024-01-18T19:23:00.100Z,95005.66
2024-01-18T19:29:03.347Z,95028.75
2024-01-18T19:35:05.779Z,95039.41
2024-01-18T19:41:07.389Z,95042.22
2024-01-18T19:47:09.099Z,95059.06
2024-01-18T19:53:10.695Z,95070.72
2024-01-18T19:59:12.325Z,95081.06
2024-01-18T20:05:14.740Z,95086.91
2024-01-18T20:11:18.652Z,95117.59
2024-01-18T20:17:20.430Z,95143.13
2024-01-18T20:23:22.454Z,95150.75
2024-01-18T20:29:24.295Z,95170.84
2024-01-18T20:35:26.871Z,95170.38
2024-01-18T20:41:28.547Z,95180.72
2024-01-18T20:47:30.545Z,95197.66
2024-01-18T20:53:32.495Z,95212.22
2024-01-18T20:59:36.981Z,95221.69
2024-01-18T21:05:38.741Z,95233.19
2024-01-18T21:11:41.690Z,95236.81
2024-01-18T21:17:45.322Z,95251.84
2024-01-18T21:23:47.542Z,95262.16
2024-01-18T21:29:49.148Z,95270.53
2024-01-18T21:35:50.882Z,95291.59
2024-01-18T21:41:52.737Z,95288.06
2024-01-18T21:47:57.746Z,95304.56
2024-01-18T21:53:59.958Z,95317.31
2024-01-18T22:00:02.367Z,95326.78
2024-01-18T22:06:04.509Z,95341.00
2024-01-18T22:12:06.996Z,95341.03
2024-01-18T22:18:09.197Z,95351.94
2024-01-18T22:24:10.846Z,95354.59
2024-01-18T22:30:12.628Z,95356.25
2024-01-18T22:36:15.004Z,95368.00
2024-01-18T22:42:16.786Z,95375.66
2024-01-18T22:48:18.554Z,95387.66
2024-01-18T22:54:20.222Z,95389.47
2024-01-18T23:00:21.773Z,95395.50
2024-01-18T23:06:24.112Z,95405.66
2024-01-18T23:12:25.948Z,95409.09
2024-01-18T23:18:27.814Z,95404.84
2024-01-18T23:24:29.452Z,95408.19
2024-01-18T23:30:30.979Z,95414.19
2024-01-18T23:37:10.242Z,95430.91
2024-01-18T23:43:11.824Z,95437.63
2024-01-18T23:49:14.397Z,95446.91
2024-01-18T23:55:16.009Z,95449.34
